createdAt,value
2019-04-26T00:01:51.425Z,15.00
2019-04-26T00:04:25.184Z,14.17
2019-04-26T00:07:00.893Z,12.07
2019-04-26T00:09:36.639Z,13.30
2019-04-26T00:12:22.558Z,15.30
2019-04-26T00:15:12.168Z,15.83
2019-04-26T00:17:56.260Z,11.30
2019-04-26T00:20:27.599Z,12.87
2019-04-26T00:23:03.346Z,13.57
2019-04-26T00:25:35.413Z,11.20
2019-04-26T00:28:13.308Z,14.33
2019-04-26T00:30:44.658Z,11.80
2019-04-26T00:33:19.352Z,14.63
2019-04-26T00:35:53.515Z,13.07
2019-04-26T00:38:36.062Z,13.87
2019-04-26T00:41:16.377Z,12.90
2019-04-26T00:43:47.514Z,14.03
2019-04-26T00:46:23.018Z,11.97
2019-04-26T00:49:04.420Z,15.03
2019-04-26T00:51:40.085Z,14.07
2019-04-26T00:54:14.144Z,13.93
2019-04-26T00:56:49.317Z,13.73
2019-04-26T00:59:25.306Z,14.97
2019-04-26T01:02:01.769Z,13.90
2019-04-26T01:04:39.810Z,15.80
2019-04-26T01:07:12.095Z,13.70
2019-04-26T01:09:44.446Z,13.93
2019-04-26T01:12:19.874Z,13.43
2019-04-26T01:14:54.727Z,13.60
2019-04-26T01:17:28.410Z,12.60
2019-04-26T01:20:03.738Z,17.27
2019-04-26T01:22:41.331Z,12.37
2019-04-26T01:25:46.869Z,16.53
2019-04-26T01:28:28.734Z,13.33
2019-04-26T01:31:02.255Z,14.20
2019-04-26T01:33:35.974Z,13.13
2019-04-26T01:36:13.242Z,14.30
2019-04-26T01:38:45.670Z,12.77
2019-04-26T01:41:28.920Z,15.13
2019-04-26T01:44:08.898Z,12.97
2019-04-26T01:46:48.175Z,16.70
2019-04-26T01:49:26.326Z,14.20
2019-04-26T01:52:06.102Z,14.03
2019-04-26T01:54:43.597Z,15.00
2019-04-26T01:57:15.454Z,15.17
2019-04-26T01:59:52.031Z,12.27
2019-04-26T02:02:48.049Z,15.30
2019-04-26T02:05:22.572Z,14.33
2019-04-26T02:07:53.917Z,16.37
2019-04-26T02:10:28.704Z,15.00
2019-04-26T02:13:00.252Z,14.83
2019-04-26T02:15:33.496Z,14.63
2019-04-26T02:18:08.271Z,12.87
2019-04-26T02:21:20.079Z,14.03
2019-04-26T02:23:58.502Z,15.70
2019-04-26T02:26:44.942Z,13.23
2019-04-26T02:29:25.200Z,17.60
2019-04-26T02:32:01.961Z,14.90
2019-04-26T02:34:37.868Z,15.57
2019-04-26T02:37:12.605Z,14.33
2019-04-26T02:39:43.567Z,13.40
2019-04-26T02:42:28.028Z,13.03
2019-04-26T02:45:30.940Z,13.20
2019-04-26T02:48:21.037Z,12.60
2019-04-26T02:50:57.594Z,13.57
2019-04-26T02:54:00.176Z,15.73
2019-04-26T02:56:57.750Z,13.07
2019-04-26T02:59:44.566Z,13.20
2019-04-26T03:02:25.817Z,15.10
2019-04-26T03:05:04.363Z,15.40
2019-04-26T03:08:00.243Z,15.77
2019-04-26T03:10:43.483Z,15.03
2019-04-26T03:13:27.141Z,13.80
2019-04-26T03:16:25.095Z,16.10
2019-04-26T03:19:11.905Z,15.03
2019-04-26T03:22:15.942Z,12.77
2019-04-26T03:24:56.381Z,15.10
2019-04-26T03:27:51.439Z,15.70
2019-04-26T03:30:33.488Z,13.87
2019-04-26T03:33:52.197Z,14.20
2019-04-26T03:36:45.555Z,15.23
2019-04-26T03:39:34.244Z,12.57
2019-04-26T03:42:52.495Z,14.13
2019-04-26T03:46:07.538Z,15.10
2019-04-26T03:48:56.779Z,17.83
2019-04-26T03:52:00.739Z,16.00
2019-04-26T03:54:37.226Z,15.03
2019-04-26T03:57:22.215Z,13.87
2019-04-26T04:00:46.566Z,13.67
2019-04-26T04:03:43.456Z,15.37
2019-04-26T04:06:20.476Z,13.33
2019-04-26T04:09:01.547Z,15.83
2019-04-26T04:11:47.382Z,14.80
2019-04-26T04:14:25.637Z,16.37
2019-04-26T04:17:32.504Z,15.53
2019-04-26T04:20:51.559Z,15.53
2019-04-26T04:23:57.740Z,12.27
2019-04-26T04:26:42.895Z,15.50
2019-04-26T04:29:47.167Z,16.00
2019-04-26T04:32:26.334Z,15.07
2019-04-26T04:35:06.418Z,15.87
2019-04-26T04:38:01.771Z,15.47
2019-04-26T04:41:11.089Z,16.27
2019-04-26T04:43:55.580Z,14.83
2019-04-26T04:47:22.353Z,15.90
2019-04-26T04:49:52.254Z,13.27
2019-04-26T04:52:46.328Z,13.30
2019-04-26T04:55:29.654Z,16.67
2019-04-26T04:58:14.851Z,15.13
2019-04-26T05:01:46.642Z,18.03
2019-04-26T05:04:26.607Z,16.40
2019-04-26T05:07:36.027Z,14.50
2019-04-26T05:10:19.847Z,16.30
2019-04-26T05:13:10.492Z,16.87
2019-04-26T05:16:24.589Z,17.67
2019-04-26T05:19:28.852Z,14.43
2019-04-26T05:22:59.177Z,13.67
2019-04-26T05:26:39.319Z,16.13
2019-04-26T05:29:35.165Z,14.63
2019-04-26T05:32:29.327Z,17.37
2019-04-26T05:35:41.027Z,17.20
2019-04-26T05:38:47.947Z,19.13
2019-04-26T05:41:45.689Z,17.47
2019-04-26T05:44:48.437Z,14.57
2019-04-26T05:48:06.272Z,14.43
2019-04-26T05:51:13.402Z,17.00
2019-04-26T05:54:39.678Z,16.00
2019-04-26T05:57:38.004Z,17.30
2019-04-26T06:00:25.427Z,18.23
2019-04-26T06:03:25.773Z,17.47
2019-04-26T06:06:35.675Z,16.20
2019-04-26T06:10:03.107Z,17.50
2019-04-26T06:13:06.058Z,17.10
2019-04-26T06:15:51.386Z,16.43
2019-04-26T06:19:02.062Z,15.57
2019-04-26T06:22:07.715Z,16.27
2019-04-26T06:25:06.491Z,15.77
2019-04-26T06:27:58.384Z,17.07
2019-04-26T06:30:45.303Z,14.83
2019-04-26T06:33:35.300Z,14.40
2019-04-26T06:36:14.973Z,15.17
2019-04-26T06:39:41.175Z,17.97
2019-04-26T06:42:54.876Z,13.67
2019-04-26T06:45:58.596Z,14.73
2019-04-26T06:48:45.426Z,16.03
2019-04-26T06:51:24.981Z,14.93
2019-04-26T06:54:21.809Z,15.10
2019-04-26T06:57:35.127Z,15.87
2019-04-26T07:00:24.498Z,16.00
2019-04-26T07:03:39.379Z,26.17
2019-04-26T07:06:12.093Z,18.10
2019-04-26T07:09:02.691Z,16.43
2019-04-26T07:12:36.990Z,16.87
2019-04-26T07:15:30.034Z,20.53
2019-04-26T07:18:12.890Z,16.70
2019-04-26T07:21:09.963Z,13.27
2019-04-26T07:24:13.402Z,18.23
2019-04-26T07:27:13.819Z,18.00
2019-04-26T07:30:28.066Z,19.23
2019-04-26T07:33:35.162Z,19.37
2019-04-26T07:36:35.952Z,17.07
2019-04-26T07:39:35.900Z,18.93
2019-04-26T07:43:03.251Z,18.97
2019-04-26T07:46:01.348Z,20.17
2019-04-26T07:49:12.546Z,21.27
2019-04-26T07:52:21.653Z,22.20
2019-04-26T07:55:20.489Z,24.03
2019-04-26T07:58:44.831Z,22.80
2019-04-26T08:01:38.546Z,22.77
2019-04-26T08:04:17.569Z,21.73
2019-04-26T08:06:58.494Z,24.30
2019-04-26T08:09:36.576Z,24.27
2019-04-26T08:12:12.072Z,24.40
2019-04-26T08:15:35.150Z,25.33
2019-04-26T08:18:15.326Z,21.67
2019-04-26T08:20:51.641Z,20.83
2019-04-26T08:23:41.072Z,26.90
2019-04-26T08:26:15.559Z,28.63
2019-04-26T08:28:49.850Z,23.33
2019-04-26T08:31:27.187Z,23.57
2019-04-26T08:34:03.502Z,22.33
2019-04-26T08:36:42.171Z,24.37
2019-04-26T08:39:32.468Z,24.47
2019-04-26T08:42:01.695Z,20.43
2019-04-26T08:44:52.161Z,25.10
2019-04-26T08:47:49.793Z,18.83
2019-04-26T08:50:32.508Z,22.20
2019-04-26T08:53:06.674Z,25.60
2019-04-26T08:55:42.050Z,27.90
2019-04-26T08:58:17.692Z,20.63
2019-04-26T09:01:16.027Z,22.57
2019-04-26T09:03:57.617Z,28.30
2019-04-26T09:06:41.893Z,22.50
2019-04-26T09:09:19.814Z,25.30
2019-04-26T09:11:59.936Z,24.63
2019-04-26T09:14:32.230Z,21.13
2019-04-26T09:17:03.167Z,23.07
2019-04-26T09:19:37.439Z,23.43
2019-04-26T09:22:27.756Z,24.83
2019-04-26T09:25:08.530Z,26.70
2019-04-26T09:27:47.340Z,25.60
2019-04-26T09:30:42.304Z,23.83
2019-04-26T09:33:16.828Z,21.37
2019-04-26T09:35:51.950Z,22.77
2019-04-26T09:38:22.630Z,17.83
2019-04-26T09:40:56.274Z,21.67
2019-04-26T09:43:31.673Z,22.73
2019-04-26T09:46:19.898Z,18.77
2019-04-26T09:49:08.677Z,22.53
2019-04-26T09:51:40.459Z,19.43
2019-04-26T09:54:11.291Z,22.30
2019-04-26T09:56:44.448Z,21.23
2019-04-26T09:59:17.245Z,23.50
2019-04-26T10:01:47.627Z,22.47
2019-04-26T10:04:18.614Z,24.70
2019-04-26T10:06:51.327Z,21.87
2019-04-26T10:09:22.830Z,25.87
2019-04-26T10:11:59.298Z,22.23
2019-04-26T10:14:56.982Z,19.07
2019-04-26T10:17:32.270Z,21.23
2019-04-26T10:20:02.975Z,20.20
2019-04-26T10:22:33.655Z,18.40
2019-04-26T10:25:07.285Z,20.83
2019-04-26T10:27:42.642Z,21.03
2019-04-26T10:30:17.181Z,23.77
2019-04-26T10:32:49.563Z,17.43
2019-04-26T10:35:21.705Z,18.63
2019-04-26T10:37:53.234Z,16.87
2019-04-26T10:40:35.007Z,23.33
2019-04-26T10:42:56.545Z,20.33
2019-04-26T10:45:28.210Z,17.57
2019-04-26T10:48:01.154Z,20.27
2019-04-26T10:50:32.975Z,20.70
2019-04-26T10:53:18.103Z,18.47
2019-04-26T10:56:06.582Z,18.67
2019-04-26T10:58:58.212Z,18.70
2019-04-26T11:01:31.909Z,22.70
2019-04-26T11:04:02.907Z,21.03
2019-04-26T11:06:33.510Z,19.37
2019-04-26T11:09:07.058Z,19.00
2019-04-26T11:11:39.337Z,20.63
2019-04-26T11:14:10.069Z,21.17
2019-04-26T11:16:41.182Z,20.03
2019-04-26T11:19:16.164Z,18.20
2019-04-26T11:21:50.994Z,23.07
2019-04-26T11:24:20.945Z,19.47
2019-04-26T11:26:52.254Z,22.17
2019-04-26T11:29:25.003Z,21.80
2019-04-26T11:31:58.407Z,29.87
2019-04-26T11:34:30.621Z,21.90
2019-04-26T11:37:01.070Z,26.90
2019-04-26T11:39:32.297Z,25.57
2019-04-26T11:42:03.527Z,23.17
2019-04-26T11:44:36.519Z,18.97
2019-04-26T11:47:07.892Z,21.93
2019-04-26T11:49:41.580Z,23.10
2019-04-26T11:52:11.833Z,24.13
2019-04-26T11:54:45.603Z,27.30
2019-04-26T11:57:19.494Z,24.70
2019-04-26T11:59:51.320Z,25.10
2019-04-26T12:02:24.347Z,18.77
2019-04-26T12:05:17.063Z,21.47
2019-04-26T12:08:03.317Z,20.43
2019-04-26T12:10:40.429Z,20.70
2019-04-26T12:13:10.330Z,16.43
2019-04-26T12:15:43.861Z,21.43
2019-04-26T12:18:15.459Z,20.37
2019-04-26T12:20:46.481Z,21.90
2019-04-26T12:23:20.816Z,16.20
2019-04-26T12:25:49.990Z,21.10
2019-04-26T12:28:21.147Z,17.00
2019-04-26T12:30:54.138Z,16.07
2019-04-26T12:33:26.685Z,18.60
2019-04-26T12:35:57.775Z,14.13
2019-04-26T12:38:30.050Z,15.53
2019-04-26T12:41:04.648Z,17.03
2019-04-26T12:43:37.323Z,17.50
2019-04-26T12:46:27.148Z,16.57
2019-04-26T12:48:58.971Z,13.97
2019-04-26T12:51:29.798Z,14.57
2019-04-26T12:54:03.867Z,18.00
2019-04-26T12:56:34.845Z,17.10
2019-04-26T12:59:05.453Z,13.13
2019-04-26T13:01:37.387Z,16.47
2019-04-26T13:04:13.210Z,15.63
2019-04-26T13:07:06.940Z,18.07
2019-04-26T13:09:40.674Z,15.50
2019-04-26T13:12:26.046Z,16.27
2019-04-26T13:15:16.831Z,16.20
2019-04-26T13:17:52.285Z,16.73
2019-04-26T13:20:24.330Z,13.17
2019-04-26T13:22:59.771Z,20.63
2019-04-26T13:25:40.162Z,16.03
2019-04-26T13:28:10.990Z,17.63
2019-04-26T13:30:44.943Z,17.27
2019-04-26T13:33:16.961Z,15.90
2019-04-26T13:36:02.267Z,15.43
2019-04-26T13:38:26.167Z,15.77
2019-04-26T13:40:59.829Z,13.60
2019-04-26T13:43:33.707Z,13.50
2019-04-26T13:46:36.023Z,13.77
2019-04-26T13:49:34.078Z,14.67
2019-04-26T13:52:08.097Z,13.17
2019-04-26T13:54:38.399Z,12.20
2019-04-26T13:57:11.284Z,13.40
2019-04-26T13:59:44.193Z,12.47
2019-04-26T14:02:15.206Z,13.80
2019-04-26T14:04:47.798Z,16.10
2019-04-26T14:07:24.110Z,12.93
2019-04-26T14:09:52.766Z,13.77
2019-04-26T14:12:29.706Z,11.63
2019-04-26T14:15:08.472Z,14.07
2019-04-26T14:17:49.130Z,11.17
2019-04-26T14:20:23.352Z,12.37
2019-04-26T14:23:19.396Z,12.27
2019-04-26T14:26:06.962Z,12.40
2019-04-26T14:28:41.983Z,11.07
2019-04-26T14:31:16.501Z,10.67
2019-04-26T14:33:46.987Z,13.20
2019-04-26T14:36:22.721Z,13.57
2019-04-26T14:39:05.218Z,10.77
2019-04-26T14:41:27.627Z,9.00
2019-04-26T14:44:14.413Z,11.73
2019-04-26T14:46:48.193Z,10.93
2019-04-26T14:49:11.066Z,12.07
2019-04-26T14:51:42.234Z,9.50
2019-04-26T14:54:13.337Z,10.37
2019-04-26T14:56:52.057Z,11.43
2019-04-26T14:59:22.099Z,12.00
2019-04-26T15:02:13.344Z,11.27
2019-04-26T15:04:53.331Z,13.70
2019-04-26T15:07:28.147Z,11.93
2019-04-26T15:09:58.603Z,12.47
2019-04-26T15:12:45.916Z,16.20
2019-04-26T15:15:08.588Z,13.27
2019-04-26T15:17:42.236Z,15.90
2019-04-26T15:20:16.731Z,20.33
2019-04-26T15:22:49.918Z,16.47
2019-04-26T15:25:28.970Z,13.77
2019-04-26T15:28:02.446Z,13.43
2019-04-26T15:30:46.425Z,14.37
2019-04-26T15:33:12.651Z,13.87
2019-04-26T15:35:44.139Z,12.00
2019-04-26T15:38:14.467Z,17.37
2019-04-26T15:41:11.530Z,16.10
2019-04-26T15:44:03.919Z,17.23
2019-04-26T15:46:57.733Z,16.63
2019-04-26T15:49:49.122Z,12.17
2019-04-26T15:52:30.096Z,17.20
2019-04-26T15:55:05.438Z,13.17
2019-04-26T15:57:34.975Z,14.27
2019-04-26T16:00:06.132Z,14.60
2019-04-26T16:02:42.586Z,11.40
2019-04-26T16:05:16.539Z,12.60
2019-04-26T16:07:47.351Z,14.13
2019-04-26T16:10:18.475Z,12.47
2019-04-26T16:12:52.418Z,16.17
2019-04-26T16:15:25.368Z,12.63
2019-04-26T16:18:00.294Z,18.70
2019-04-26T16:20:37.475Z,14.67
2019-04-26T16:23:07.320Z,13.70
2019-04-26T16:25:42.956Z,14.47
2019-04-26T16:28:46.287Z,18.73
2019-04-26T16:31:25.999Z,15.37
2019-04-26T16:34:10.543Z,16.27
2019-04-26T16:36:45.298Z,14.77
2019-04-26T16:39:16.009Z,15.43
2019-04-26T16:41:49.925Z,16.90
2019-04-26T16:44:29.514Z,13.27
2019-04-26T16:49:35.102Z,18.30
2019-04-26T16:52:07.550Z,13.13
2019-04-26T16:54:42.448Z,15.33
2019-04-26T16:57:16.218Z,15.93
2019-04-26T16:59:54.416Z,14.67
2019-04-26T17:02:26.153Z,16.57
2019-04-26T17:05:03.586Z,17.93
2019-04-26T17:07:32.381Z,19.50
2019-04-26T17:09:37.394Z,15.00
2019-04-26T17:10:04.832Z,20.07
2019-04-26T17:12:38.965Z,17.93
2019-04-26T17:15:10.729Z,21.67
2019-04-26T17:17:45.030Z,21.67
2019-04-26T17:20:15.786Z,21.97
2019-04-26T17:23:03.282Z,25.00
2019-04-26T17:25:59.153Z,29.67
2019-04-26T17:28:30.364Z,33.90
2019-04-26T17:31:02.106Z,28.83
2019-04-26T17:33:34.818Z,25.80
2019-04-26T17:36:11.393Z,26.70
2019-04-26T17:38:41.882Z,29.57
2019-04-26T17:41:14.567Z,29.20
2019-04-26T17:43:47.533Z,26.93
2019-04-26T17:46:18.200Z,22.97
2019-04-26T17:48:56.854Z,28.40
2019-04-26T17:51:27.872Z,25.33
2019-04-26T17:54:21.085Z,23.10
2019-04-26T17:56:34.890Z,25.43
2019-04-26T17:59:09.169Z,26.13
2019-04-26T18:01:48.116Z,19.00
2019-04-26T18:04:31.494Z,28.30
2019-04-26T18:07:01.808Z,27.63
2019-04-26T18:09:43.040Z,27.03
2019-04-26T18:12:04.876Z,19.87
2019-04-26T18:14:37.797Z,24.57
2019-04-26T18:17:39.114Z,25.57
2019-04-26T18:20:30.618Z,25.40
2019-04-26T18:23:09.939Z,25.97
2019-04-26T18:25:41.228Z,23.73
2019-04-26T18:28:14.570Z,25.73
2019-04-26T18:30:47.785Z,27.17
2019-04-26T18:33:22.468Z,23.27
2019-04-26T18:35:57.681Z,26.50
2019-04-26T18:38:38.370Z,22.70
2019-04-26T18:41:14.228Z,29.47
2019-04-26T18:43:46.919Z,22.70
2019-04-26T18:46:28.421Z,23.63
2019-04-26T18:48:59.464Z,24.90
2019-04-26T18:51:31.141Z,22.73
2019-04-26T18:54:27.707Z,27.07
2019-04-26T18:57:04.325Z,24.67
2019-04-26T18:59:38.555Z,27.30
2019-04-26T19:02:18.722Z,26.73
2019-04-26T19:04:55.443Z,20.70
2019-04-26T19:07:32.343Z,21.33
2019-04-26T19:10:05.469Z,24.20
2019-04-26T19:12:43.547Z,19.57
2019-04-26T19:15:27.870Z,29.00
2019-04-26T19:18:13.332Z,27.50
2019-04-26T19:20:59.625Z,24.27
2019-04-26T19:23:32.098Z,18.17
2019-04-26T19:26:03.503Z,23.47
2019-04-26T19:28:39.886Z,21.87
2019-04-26T19:31:12.773Z,24.20
2019-04-26T19:33:47.682Z,24.93
2019-04-26T19:36:22.683Z,20.87
2019-04-26T19:38:53.128Z,21.00
2019-04-26T19:41:31.522Z,22.03
2019-04-26T19:44:02.845Z,30.63
2019-04-26T19:46:53.978Z,22.00
2019-04-26T19:49:48.315Z,22.07
2019-04-26T19:52:27.794Z,22.50
2019-04-26T19:55:18.084Z,22.30
2019-04-26T19:58:03.458Z,21.80
2019-04-26T20:00:34.213Z,25.60
2019-04-26T20:03:12.801Z,22.43
2019-04-26T20:05:44.102Z,25.93
2019-04-26T20:08:16.778Z,21.87
2019-04-26T20:10:52.116Z,19.50
2019-04-26T20:13:26.805Z,26.63
2019-04-26T20:16:02.703Z,22.63
2019-04-26T20:18:32.743Z,22.17
2019-04-26T20:21:15.065Z,24.73
2019-04-26T20:23:43.679Z,21.20
2019-04-26T20:26:14.747Z,23.67
2019-04-26T20:28:45.168Z,23.43
2019-04-26T20:31:37.631Z,22.83
2019-04-26T20:34:10.937Z,23.13
2019-04-26T20:36:47.800Z,23.23
2019-04-26T20:39:23.535Z,23.30
2019-04-26T20:42:03.238Z,21.90
2019-04-26T20:44:46.095Z,24.67
2019-04-26T20:47:07.629Z,21.33
2019-04-26T20:49:49.752Z,22.77
2019-04-26T20:52:24.954Z,25.00
2019-04-26T20:54:54.341Z,29.00
2019-04-26T20:57:32.975Z,28.50
2019-04-26T21:00:05.442Z,35.27
2019-04-26T21:02:37.486Z,28.33
2019-04-26T21:05:11.194Z,26.83
2019-04-26T21:07:49.442Z,26.57
2019-04-26T21:10:21.694Z,30.50
2019-04-26T21:12:52.099Z,24.97
2019-04-26T21:15:25.350Z,28.07
2019-04-26T21:18:01.357Z,29.10
2019-04-26T21:20:34.477Z,31.37
2019-04-26T21:23:06.914Z,32.57
2019-04-26T21:25:56.985Z,26.27
2019-04-26T21:28:38.176Z,25.00
2019-04-26T21:31:29.827Z,30.80
2019-04-26T21:34:12.468Z,31.87
2019-04-26T21:36:53.373Z,27.03
2019-04-26T21:39:53.249Z,29.93
2019-04-26T21:42:25.836Z,30.10
2019-04-26T21:44:58.158Z,28.80
2019-04-26T21:47:31.941Z,32.07
2019-04-26T21:50:01.074Z,26.50
2019-04-26T21:52:31.493Z,29.87
2019-04-26T21:55:06.626Z,29.40
2019-04-26T21:57:39.879Z,31.23
2019-04-26T22:00:29.898Z,30.13
2019-04-26T22:03:03.653Z,32.50
2019-04-26T22:05:37.731Z,29.27
2019-04-26T22:08:08.503Z,26.10
2019-04-26T22:10:45.530Z,25.27
2019-04-26T22:13:37.258Z,26.07
2019-04-26T22:16:41.271Z,24.53
2019-04-26T22:19:23.829Z,23.80
2019-04-26T22:22:16.908Z,21.93
2019-04-26T22:24:47.934Z,20.70
2019-04-26T22:27:21.710Z,22.43
2019-04-26T22:29:57.826Z,24.77
2019-04-26T22:32:28.523Z,24.63
2019-04-26T22:35:13.466Z,25.93
2019-04-26T22:37:48.075Z,22.03
2019-04-26T22:40:23.363Z,23.03
2019-04-26T22:43:05.338Z,18.83
2019-04-26T22:45:54.438Z,22.27
2019-04-26T22:48:34.044Z,20.23
2019-04-26T22:51:09.656Z,23.27
2019-04-26T22:53:44.299Z,20.53
2019-04-26T22:56:17.598Z,19.63
2019-04-26T22:58:51.582Z,20.50
2019-04-26T23:01:26.702Z,21.30
2019-04-26T23:03:57.696Z,17.70
2019-04-26T23:06:30.659Z,20.47
2019-04-26T23:09:02.682Z,21.00
2019-04-26T23:11:35.112Z,23.03
2019-04-26T23:14:24.346Z,15.63
2019-04-26T23:17:08.422Z,19.33
2019-04-26T23:19:54.321Z,22.50
2019-04-26T23:22:31.083Z,20.77
2019-04-26T23:25:03.158Z,18.67
2019-04-26T23:27:33.878Z,20.10
2019-04-26T23:30:04.574Z,19.67
2019-04-26T23:32:36.774Z,20.40
2019-04-26T23:35:09.086Z,18.37
2019-04-26T23:37:39.681Z,22.50
2019-04-26T23:40:12.135Z,16.97
2019-04-26T23:42:51.512Z,21.17
2019-04-26T23:45:23.109Z,20.03
2019-04-26T23:47:55.326Z,22.63
2019-04-26T23:50:29.465Z,21.83
2019-04-26T23:53:08.438Z,18.77
2019-04-26T23:55:42.560Z,17.87
2019-04-26T23:58:14.804Z,19.87
